createdAt,value
2018-07-17T00:41:10.516Z,82.10
2018-07-17T00:54:21.024Z,95.20
2018-07-17T01:30:13.574Z,99.90
2018-07-17T01:35:44.424Z,99.90
2018-07-17T01:38:40.032Z,99.90
2018-07-17T01:41:29.053Z,99.90
2018-07-17T01:44:29.925Z,99.90
2018-07-17T01:47:03.557Z,99.90
2018-07-17T01:50:20.290Z,99.90
2018-07-17T03:19:59.312Z,99.90
2018-07-17T03:24:06.640Z,99.90
2018-07-17T03:42:08.295Z,99.90
2018-07-17T03:51:08.169Z,99.90
2018-07-17T04:09:05.765Z,99.90
2018-07-17T04:15:09.145Z,99.90
2018-07-17T04:21:05.939Z,99.90
2018-07-17T04:24:37.687Z,99.90
2018-07-17T04:28:16.631Z,99.90
2018-07-17T04:34:36.467Z,99.90
2018-07-17T04:44:24.682Z,99.90
2018-07-17T04:53:37.875Z,99.90
2018-07-17T04:56:28.784Z,99.90
2018-07-17T04:59:08.428Z,99.90
2018-07-17T05:01:45.296Z,99.90
2018-07-17T05:16:18.067Z,99.90
2018-07-17T05:18:50.690Z,99.90
2018-07-17T05:22:10.505Z,99.90
2018-07-17T05:24:43.284Z,99.90
2018-07-17T05:27:47.556Z,99.90
2018-07-17T05:30:24.217Z,99.90
2018-07-17T05:33:10.198Z,99.90
2018-07-17T05:35:44.602Z,99.90
2018-07-17T05:38:28.480Z,99.90
2018-07-17T05:41:06.584Z,99.90
2018-07-17T05:43:54.358Z,99.90
2018-07-17T05:46:40.177Z,99.90
2018-07-17T05:49:40.685Z,99.90
2018-07-17T05:52:19.855Z,99.90
2018-07-17T05:59:43.622Z,99.90
2018-07-17T06:07:23.754Z,99.90
2018-07-17T06:18:49.234Z,99.90
2018-07-17T06:31:07.377Z,99.90
2018-07-17T06:33:41.603Z,99.90
2018-07-17T06:39:13.963Z,99.90
2018-07-17T06:41:51.641Z,99.90
2018-07-17T06:44:51.575Z,99.90
2018-07-17T06:47:43.490Z,99.90
2018-07-17T07:03:43.949Z,99.90
2018-07-17T07:10:36.097Z,99.90
2018-07-17T07:13:47.738Z,99.90
2018-07-17T07:24:04.021Z,99.90
2018-07-17T07:26:48.239Z,99.90
2018-07-17T07:48:32.783Z,99.90
2018-07-17T07:57:26.824Z,99.90
2018-07-17T08:00:18.649Z,99.90
2018-07-17T08:05:43.839Z,99.90
2018-07-17T08:13:59.438Z,99.90
2018-07-17T08:22:05.103Z,99.90
2018-07-17T08:27:29.193Z,99.90
2018-07-17T08:35:50.723Z,99.90
2018-07-17T08:42:00.645Z,99.90
2018-07-17T08:48:34.046Z,99.90
2018-07-17T08:51:21.445Z,99.90
2018-07-17T08:53:55.549Z,99.90
2018-07-17T09:01:37.177Z,99.90
2018-07-17T09:04:17.953Z,99.90
2018-07-17T09:08:11.335Z,99.90
2018-07-17T09:10:52.055Z,99.90
2018-07-17T09:13:43.922Z,99.90
2018-07-17T09:22:39.058Z,99.90
2018-07-17T09:28:13.525Z,99.90
2018-07-17T09:30:51.658Z,99.90
2018-07-17T09:33:26.650Z,99.90
2018-07-17T09:36:04.986Z,99.90
2018-07-17T09:38:45.968Z,99.90
2018-07-17T09:41:20.677Z,99.90
2018-07-17T09:46:28.887Z,99.90
2018-07-17T09:49:23.023Z,99.90
2018-07-17T09:54:47.544Z,99.90
2018-07-17T09:58:20.579Z,99.90
2018-07-17T10:01:06.071Z,99.90
2018-07-17T10:03:56.353Z,99.90
2018-07-17T10:06:52.391Z,99.90
2018-07-17T10:09:40.846Z,99.90
2018-07-17T10:18:19.258Z,99.90
2018-07-17T10:41:30.406Z,99.90
2018-07-17T10:44:33.628Z,99.90
2018-07-17T10:50:20.577Z,99.90
2018-07-17T11:12:25.930Z,99.90
2018-07-17T11:18:51.864Z,99.90
2018-07-17T11:33:33.133Z,99.90
2018-07-17T11:39:22.387Z,99.90
2018-07-17T12:20:58.076Z,99.90
2018-07-17T12:32:28.491Z,99.90
2018-07-17T12:35:30.559Z,99.90
2018-07-17T12:50:59.932Z,99.90
2018-07-17T12:59:17.513Z,99.90
2018-07-17T13:33:22.216Z,99.90
2018-07-17T13:38:43.724Z,99.90
2018-07-17T13:41:20.929Z,99.90
2018-07-17T13:44:01.066Z,99.90
2018-07-17T13:46:36.409Z,99.90
2018-07-17T13:49:10.225Z,99.90
2018-07-17T13:51:44.379Z,99.90
2018-07-17T13:54:16.866Z,99.90
2018-07-17T13:57:25.444Z,99.90
2018-07-17T13:59:59.528Z,99.90
2018-07-17T14:02:33.047Z,99.90
2018-07-17T14:05:06.164Z,99.90
2018-07-17T14:07:41.730Z,99.90
2018-07-17T14:10:13.661Z,99.90
2018-07-17T14:12:51.119Z,99.90
2018-07-17T14:15:27.363Z,99.90
2018-07-17T14:18:09.834Z,99.90
2018-07-17T14:20:50.414Z,99.90
2018-07-17T14:23:28.969Z,99.90
2018-07-17T14:26:02.397Z,99.90
2018-07-17T14:28:37.153Z,99.90
2018-07-17T14:33:56.577Z,99.90
2018-07-17T14:36:30.407Z,99.90
2018-07-17T14:39:03.280Z,99.90
2018-07-17T14:41:35.523Z,99.90
2018-07-17T14:44:08.076Z,99.90
2018-07-17T14:46:44.112Z,99.90
2018-07-17T14:49:27.791Z,99.90
2018-07-17T14:52:04.605Z,99.90
2018-07-17T14:54:39.712Z,99.90
2018-07-17T14:57:20.404Z,99.90
2018-07-17T14:59:56.818Z,99.90
2018-07-17T15:02:34.140Z,99.60
2018-07-17T15:05:10.309Z,98.80
2018-07-17T15:07:43.326Z,96.20
2018-07-17T15:10:17.679Z,90.00
2018-07-17T15:12:50.170Z,88.70
2018-07-17T15:15:27.791Z,83.90
2018-07-17T15:18:01.507Z,80.20
2018-07-17T15:20:33.752Z,84.00
2018-07-17T15:23:06.202Z,84.40
2018-07-17T15:25:38.460Z,80.50
2018-07-17T15:28:12.804Z,76.90
2018-07-17T15:30:48.788Z,72.50
2018-07-17T15:33:22.243Z,72.00
2018-07-17T15:35:58.253Z,70.80
2018-07-17T15:38:35.985Z,68.30
2018-07-17T15:41:11.905Z,67.10
2018-07-17T15:43:48.013Z,62.50
2018-07-17T15:46:24.099Z,59.20
2018-07-17T15:48:58.190Z,61.20
2018-07-17T15:51:40.426Z,57.20
2018-07-17T15:54:12.996Z,57.00
2018-07-17T15:56:49.537Z,56.50
2018-07-17T15:59:23.674Z,52.50
2018-07-17T16:01:58.824Z,55.10
2018-07-17T16:04:42.300Z,58.20
2018-07-17T16:07:15.848Z,54.70
2018-07-17T16:09:49.402Z,54.00
2018-07-17T16:12:25.174Z,52.10
2018-07-17T16:14:59.957Z,50.90
2018-07-17T16:17:37.343Z,50.90
2018-07-17T16:20:11.333Z,50.30
2018-07-17T16:22:45.437Z,51.20
2018-07-17T16:25:18.354Z,52.20
2018-07-17T16:27:52.223Z,52.10
2018-07-17T16:30:29.143Z,51.40
2018-07-17T16:33:02.130Z,49.80
2018-07-17T16:35:36.429Z,51.90
2018-07-17T16:38:10.203Z,52.40
2018-07-17T16:40:46.179Z,51.10
2018-07-17T16:43:25.539Z,50.20
2018-07-17T16:45:59.427Z,50.70
2018-07-17T16:48:35.177Z,49.10
2018-07-17T16:54:08.687Z,48.40
2018-07-17T16:56:44.150Z,49.00
2018-07-17T16:59:18.601Z,48.50
2018-07-17T17:04:39.689Z,48.50
2018-07-17T17:07:13.234Z,48.40
2018-07-17T17:09:49.170Z,47.70
2018-07-17T17:12:23.671Z,46.90
2018-07-17T17:14:56.956Z,48.90
2018-07-17T17:17:34.521Z,47.80
2018-07-17T17:20:13.903Z,47.60
2018-07-17T17:22:54.700Z,46.30
2018-07-17T17:25:43.548Z,45.40
2018-07-17T17:31:17.194Z,44.70
2018-07-17T17:33:52.823Z,45.30
2018-07-17T17:36:52.692Z,45.90
2018-07-17T17:45:36.107Z,44.30
2018-07-17T17:48:12.000Z,46.10
2018-07-17T17:50:52.431Z,46.80
2018-07-17T17:53:26.319Z,47.30
2018-07-17T17:56:03.421Z,45.70
2018-07-17T17:58:40.344Z,45.60
2018-07-17T18:01:17.112Z,46.10
2018-07-17T18:03:57.827Z,45.00
2018-07-17T18:06:31.171Z,44.80
2018-07-17T18:09:05.577Z,46.90
2018-07-17T18:11:40.997Z,48.10
2018-07-17T18:14:33.322Z,47.40
2018-07-17T18:17:07.238Z,46.70
2018-07-17T18:19:45.862Z,45.00
2018-07-17T18:22:21.406Z,45.30
2018-07-17T18:25:01.995Z,46.30
2018-07-17T18:27:40.749Z,46.20
2018-07-17T18:30:19.533Z,45.30
2018-07-17T18:32:55.356Z,45.80
2018-07-17T18:35:28.962Z,45.90
2018-07-17T18:38:01.254Z,47.20
2018-07-17T18:40:38.259Z,45.50
2018-07-17T18:43:14.105Z,46.10
2018-07-17T18:48:24.222Z,47.90
2018-07-17T18:50:58.040Z,48.70
2018-07-17T18:53:31.439Z,49.30
2018-07-17T18:56:04.567Z,49.90
2018-07-17T18:58:37.659Z,49.30
2018-07-17T19:01:13.867Z,51.30
2018-07-17T19:03:48.023Z,50.30
2018-07-17T19:06:22.494Z,51.80
2018-07-17T19:08:58.645Z,51.30
2018-07-17T19:11:31.507Z,50.60
2018-07-17T19:14:07.853Z,50.90
2018-07-17T19:16:42.064Z,51.10
2018-07-17T19:19:14.262Z,51.00
2018-07-17T19:21:48.404Z,52.10
2018-07-17T19:24:25.879Z,50.60
2018-07-17T19:27:00.439Z,49.50
2018-07-17T19:29:34.402Z,50.60
2018-07-17T19:32:06.877Z,51.60
2018-07-17T19:34:52.823Z,50.90
2018-07-17T19:37:25.211Z,49.70
2018-07-17T19:39:57.311Z,49.50
2018-07-17T19:42:30.872Z,49.10
2018-07-17T19:45:04.033Z,49.30
2018-07-17T19:47:44.824Z,48.80
2018-07-17T19:50:18.055Z,49.50
2018-07-17T19:52:53.587Z,47.80
2018-07-17T19:55:35.222Z,48.80
2018-07-17T19:58:11.552Z,49.60
2018-07-17T20:00:55.976Z,47.60
2018-07-17T20:03:56.280Z,47.30
2018-07-17T20:09:58.043Z,48.20
2018-07-17T20:12:41.276Z,48.50
2018-07-17T20:15:18.988Z,50.80
2018-07-17T20:17:58.395Z,52.70
2018-07-17T20:23:43.994Z,50.50
2018-07-17T20:26:24.082Z,49.40
2018-07-17T20:29:00.604Z,49.60
2018-07-17T20:31:38.045Z,50.30
2018-07-17T20:37:40.445Z,52.30
2018-07-17T20:40:16.315Z,50.90
2018-07-17T20:43:02.053Z,50.70
2018-07-17T20:48:29.372Z,53.30
2018-07-17T20:51:03.153Z,51.40
2018-07-17T20:53:36.711Z,50.60
2018-07-17T20:56:11.605Z,51.70
2018-07-17T20:58:46.954Z,53.20
2018-07-17T21:01:20.472Z,51.50
2018-07-17T21:03:54.327Z,51.00
2018-07-17T21:11:56.358Z,54.60
2018-07-17T21:14:34.307Z,52.10
2018-07-17T21:17:13.981Z,52.20
2018-07-17T21:19:48.044Z,52.00
2018-07-17T21:22:33.945Z,51.60
2018-07-17T21:25:09.754Z,52.40
2018-07-17T21:27:48.383Z,51.90
2018-07-17T21:30:42.543Z,51.20
2018-07-17T21:33:16.092Z,53.70
2018-07-17T21:35:50.957Z,56.00
2018-07-17T21:38:26.893Z,56.10
2018-07-17T21:41:01.396Z,53.70
2018-07-17T21:43:35.176Z,54.50
2018-07-17T21:46:14.580Z,55.40
2018-07-17T21:48:48.729Z,53.80
2018-07-17T21:51:22.505Z,54.30
2018-07-17T21:53:58.874Z,54.00
2018-07-17T21:56:38.032Z,53.70
2018-07-17T21:59:15.941Z,53.60
2018-07-17T22:01:53.442Z,53.30
2018-07-17T22:07:11.049Z,53.50
2018-07-17T22:09:44.719Z,54.20
2018-07-17T22:12:32.940Z,55.70
2018-07-17T22:15:10.869Z,55.90
2018-07-17T22:17:47.852Z,57.00
2018-07-17T22:20:23.754Z,57.50
2018-07-17T22:23:01.805Z,57.70
2018-07-17T22:25:46.755Z,57.90
2018-07-17T22:31:38.781Z,60.00
2018-07-17T22:34:27.641Z,62.10
2018-07-17T22:40:25.565Z,63.40
2018-07-17T22:43:14.100Z,69.40
2018-07-17T22:45:50.942Z,73.30
2018-07-17T22:48:25.219Z,74.20
2018-07-17T22:50:57.599Z,75.00
2018-07-17T22:53:36.569Z,74.10
2018-07-17T22:56:09.655Z,78.40
2018-07-17T22:58:42.873Z,83.10
2018-07-17T23:01:17.154Z,88.70
2018-07-17T23:03:50.049Z,93.40
2018-07-17T23:06:26.946Z,95.00
2018-07-17T23:08:59.918Z,95.20
2018-07-17T23:11:35.194Z,93.00
2018-07-17T23:14:12.581Z,92.40
2018-07-17T23:16:47.784Z,90.30
2018-07-17T23:22:17.897Z,94.40
2018-07-17T23:24:59.934Z,95.60
2018-07-17T23:28:01.860Z,98.70
2018-07-17T23:30:46.320Z,98.00
2018-07-17T23:33:40.544Z,99.50
2018-07-17T23:36:43.507Z,99.90
2018-07-17T23:39:21.720Z,99.50
2018-07-17T23:42:03.069Z,99.90
2018-07-17T23:44:48.726Z,99.90
2018-07-17T23:47:28.269Z,99.90
2018-07-17T23:49:59.781Z,99.90
2018-07-17T23:55:13.186Z,99.90
2018-07-17T23:57:44.204Z,99.90
